Terminal Aerodrome Forecast
Issued by NWS

Home | Current Version | Previous Version | Text Only | Print | Product List | Glossary On
Versions: 1 2 3 4 5 6 7 8 9 10 11 12 13 14 15 16 17
000
FTUS44 KJAN 292329
TAFHKS
TAF
KHKS 292329Z 3000/3024 15010KT P6SM SCT040 BKN250
     FM300800 16004KT P6SM OVC015
     FM301500 18009KT P6SM SCT025
     FM301800 20010KT P6SM VCTS SCT040CB=

USA.gov is the U.S. government's official web portal to all federal, state and local government web resources and services.